Time,TemperatureF,DewpointF,PressureIn,WindDirection,WindDirectionDegrees,WindSpeedMPH,WindSpeedGustMPH,Humidity,HourlyPrecipIn,Conditions,Clouds,dailyrainin,SoftwareType,DateUTC
2013-08-30 00:11:00,64.4,54.0,30.11,NNE,22,13.5,-999.0,69,-99.99,,,0.00,Acu-Link.com,2013-08-30 06:11:00,
2013-08-30 00:26:00,64.2,54.2,30.12,NNE,22,5.3,-999.0,70,-99.99,,,0.00,Acu-Link.com,2013-08-30 06:26:00,
2013-08-30 00:41:00,63.7,54.1,30.12,NE,45,7.3,-999.0,71,-99.99,,,0.00,Acu-Link.com,2013-08-30 06:41:00,
2013-08-30 00:56:00,61.9,54.2,30.14,ENE,67,2.2,-999.0,76,-99.99,,,0.00,Acu-Link.com,2013-08-30 06:56:00,
2013-08-30 01:12:00,59.4,53.9,30.13,East,90,2.2,-999.0,82,-99.99,,,0.00,Acu-Link.com,2013-08-30 07:12:00,
2013-08-30 01:27:00,59.4,53.2,30.13,ENE,67,3.2,-999.0,80,-99.99,,,0.00,Acu-Link.com,2013-08-30 07:27:00,
2013-08-30 01:42:00,60.1,53.6,30.12,NE,45,4.2,-999.0,79,-99.99,,,0.00,Acu-Link.com,2013-08-30 07:42:00,
2013-08-30 01:58:00,61.0,53.7,30.12,East,90,3.2,-999.0,77,-99.99,,,0.00,Acu-Link.com,2013-08-30 07:58:00,
2013-08-30 02:13:00,60.4,53.5,30.12,NNE,22,0.0,-999.0,78,-99.99,,,0.00,Acu-Link.com,2013-08-30 08:13:00,
2013-08-30 02:29:00,60.3,53.8,30.12,NNE,22,2.2,-999.0,79,-99.99,,,0.00,Acu-Link.com,2013-08-30 08:29:00,
2013-08-30 02:44:00,59.9,53.4,30.13,SW,225,0.0,-999.0,79,-99.99,,,0.00,Acu-Link.com,2013-08-30 08:44:00,
2013-08-30 02:59:00,59.4,53.6,30.11,North,0,3.7,-999.0,81,-99.99,,,0.00,Acu-Link.com,2013-08-30 08:59:00,
2013-08-30 03:14:00,59.2,53.7,30.11,NNW,337,3.2,-999.0,82,-99.99,,,0.00,Acu-Link.com,2013-08-30 09:14:00,
2013-08-30 03:29:00,59.7,54.2,30.12,SSE,157,1.7,-999.0,82,-99.99,,,0.00,Acu-Link.com,2013-08-30 09:29:00,
2013-08-30 03:44:00,56.7,53.5,30.11,NNW,337,2.7,-999.0,89,-99.99,,,0.00,Acu-Link.com,2013-08-30 09:44:00,
2013-08-30 03:59:00,56.3,54.0,30.12,NE,45,4.2,-999.0,92,-99.99,,,0.00,Acu-Link.com,2013-08-30 09:59:00,
2013-08-30 04:15:00,57.4,55.1,30.11,NNE,22,3.2,-999.0,92,-99.99,,,0.00,Acu-Link.com,2013-08-30 10:15:00,
2013-08-30 04:30:00,56.1,55.0,30.11,North,0,1.7,-999.0,96,-99.99,,,0.00,Acu-Link.com,2013-08-30 10:30:00,
2013-08-30 04:45:00,56.3,55.7,30.12,North,0,3.7,-999.0,98,-99.99,,,0.00,Acu-Link.com,2013-08-30 10:45:00,
2013-08-30 05:01:00,57.0,56.4,30.10,NNE,22,3.7,-999.0,98,-99.99,,,0.00,Acu-Link.com,2013-08-30 11:01:00,
2013-08-30 05:16:00,56.8,56.2,30.13,ENE,67,2.7,-999.0,98,-99.99,,,0.00,Acu-Link.com,2013-08-30 11:16:00,
2013-08-30 05:31:00,55.4,54.8,30.12,NNE,22,2.2,-999.0,98,-99.99,,,0.00,Acu-Link.com,2013-08-30 11:31:00,
2013-08-30 05:46:00,55.2,54.6,30.11,NE,45,3.2,-999.0,98,-99.99,,,0.00,Acu-Link.com,2013-08-30 11:46:00,
2013-08-30 06:01:00,55.8,55.2,30.12,NE,45,2.7,-999.0,98,-99.99,,,0.00,Acu-Link.com,2013-08-30 12:01:00,
2013-08-30 06:16:00,56.3,55.7,30.12,NNE,22,3.7,-999.0,98,-99.99,,,0.00,Acu-Link.com,2013-08-30 12:16:00,
2013-08-30 06:32:00,56.1,54.1,30.12,North,0,2.7,-999.0,93,-99.99,,,0.00,Acu-Link.com,2013-08-30 12:32:00,
2013-08-30 06:47:00,56.1,55.0,30.13,NNW,337,3.2,-999.0,96,-99.99,,,0.00,Acu-Link.com,2013-08-30 12:47:00,
2013-08-30 07:02:00,55.9,55.3,30.14,NE,45,3.2,-999.0,98,-99.99,,,0.00,Acu-Link.com,2013-08-30 13:02:00,
2013-08-30 07:17:00,56.1,55.5,30.14,NNE,22,3.7,-999.0,98,-99.99,,,0.00,Acu-Link.com,2013-08-30 13:17:00,
2013-08-30 07:32:00,57.0,56.2,30.14,NNW,337,3.7,-999.0,97,-99.99,,,0.00,Acu-Link.com,2013-08-30 13:32:00,
2013-08-30 07:48:00,57.0,54.1,30.14,North,0,3.7,-999.0,90,-99.99,,,0.00,Acu-Link.com,2013-08-30 13:48:00,
2013-08-30 08:03:00,57.9,54.1,30.15,NNE,22,4.7,-999.0,87,-99.99,,,0.00,Acu-Link.com,2013-08-30 14:03:00,
2013-08-30 08:18:00,58.6,53.5,30.14,NNW,337,4.2,-999.0,83,-99.99,,,0.00,Acu-Link.com,2013-08-30 14:18:00,
2013-08-30 08:34:00,60.6,54.7,30.14,NW,315,1.1,-999.0,81,-99.99,,,0.00,Acu-Link.com,2013-08-30 14:34:00,
2013-08-30 08:49:00,64.0,56.6,30.14,NE,45,3.7,-999.0,77,-99.99,,,0.00,Acu-Link.com,2013-08-30 14:49:00,
2013-08-30 09:05:00,63.0,57.4,30.15,NNE,22,3.7,-999.0,82,-99.99,,,0.00,Acu-Link.com,2013-08-30 15:05:00,
2013-08-30 09:20:00,64.9,56.8,30.15,North,0,2.7,-999.0,75,-99.99,,,0.00,Acu-Link.com,2013-08-30 15:20:00,
2013-08-30 09:35:00,65.1,55.8,30.15,NE,45,2.7,-999.0,72,-99.99,,,0.00,Acu-Link.com,2013-08-30 15:35:00,
2013-08-30 09:50:00,65.5,55.8,30.14,ESE,112,0.0,-999.0,71,-99.99,,,0.00,Acu-Link.com,2013-08-30 15:50:00,
2013-08-30 10:05:00,65.7,56.4,30.14,SSE,157,1.1,-999.0,72,-99.99,,,0.00,Acu-Link.com,2013-08-30 16:05:00,
2013-08-30 10:21:00,66.4,59.3,30.14,NE,45,2.7,-999.0,78,-99.99,,,0.00,Acu-Link.com,2013-08-30 16:21:00,
2013-08-30 10:36:00,66.7,57.8,30.12,NE,45,3.7,-999.0,73,-99.99,,,0.00,Acu-Link.com,2013-08-30 16:36:00,
2013-08-30 10:51:00,68.2,58.0,30.12,ENE,67,2.7,-999.0,70,-99.99,,,0.00,Acu-Link.com,2013-08-30 16:51:00,
2013-08-30 11:07:00,72.1,58.3,30.12,ENE,67,3.7,-999.0,62,-99.99,,,0.00,Acu-Link.com,2013-08-30 17:07:00,
2013-08-30 11:22:00,70.2,58.7,30.13,NE,45,2.7,-999.0,67,-99.99,,,0.00,Acu-Link.com,2013-08-30 17:22:00,
2013-08-30 11:37:00,69.4,58.4,30.12,East,90,2.7,-999.0,68,-99.99,,,0.00,Acu-Link.com,2013-08-30 17:37:00,
2013-08-30 11:52:00,70.9,59.8,30.11,ESE,112,2.7,-999.0,68,-99.99,,,0.00,Acu-Link.com,2013-08-30 17:52:00,
2013-08-30 12:07:00,71.6,58.3,30.10,ESE,112,0.0,-999.0,63,-99.99,,,0.00,Acu-Link.com,2013-08-30 18:07:00,
2013-08-30 12:23:00,73.4,60.0,30.11,ENE,67,2.7,-999.0,63,-99.99,,,0.00,Acu-Link.com,2013-08-30 18:23:00,
2013-08-30 12:38:00,74.7,62.1,30.08,ESE,112,2.7,-999.0,65,-99.99,,,0.00,Acu-Link.com,2013-08-30 18:38:00,
2013-08-30 12:53:00,77.0,63.0,30.08,NE,45,4.7,-999.0,62,-99.99,,,0.00,Acu-Link.com,2013-08-30 18:53:00,
2013-08-30 13:08:00,79.0,61.4,30.07,ENE,67,1.7,-999.0,55,-99.99,,,0.00,Acu-Link.com,2013-08-30 19:08:00,
2013-08-30 13:23:00,79.9,57.8,30.05,ENE,67,5.3,-999.0,47,-99.99,,,0.00,Acu-Link.com,2013-08-30 19:23:00,
2013-08-30 13:39:00,81.1,55.1,30.04,NNW,337,2.7,-999.0,41,-99.99,,,0.00,Acu-Link.com,2013-08-30 19:39:00,
2013-08-30 13:54:00,82.2,56.8,30.03,ESE,112,1.1,-999.0,42,-99.99,,,0.00,Acu-Link.com,2013-08-30 19:54:00,
2013-08-30 14:09:00,85.5,57.0,30.03,SSW,202,5.3,-999.0,38,-99.99,,,0.00,Acu-Link.com,2013-08-30 20:09:00,
2013-08-30 14:24:00,83.8,56.2,30.02,NE,45,2.7,-999.0,39,-99.99,,,0.00,Acu-Link.com,2013-08-30 20:24:00,
2013-08-30 14:40:00,79.7,53.9,30.00,NE,45,3.7,-999.0,41,-99.99,,,0.00,Acu-Link.com,2013-08-30 20:40:00,
2013-08-30 14:56:00,82.8,57.3,30.01,SSE,157,4.2,-999.0,42,-99.99,,,0.00,Acu-Link.com,2013-08-30 20:56:00,
2013-08-30 15:12:00,78.6,53.6,29.98,SSW,202,6.8,-999.0,42,-99.99,,,0.00,Acu-Link.com,2013-08-30 21:12:00,
2013-08-30 15:27:00,77.7,53.4,29.98,SSW,202,4.7,-999.0,43,-99.99,,,0.00,Acu-Link.com,2013-08-30 21:27:00,
2013-08-30 15:42:00,76.8,55.0,29.98,SSW,202,0.0,-999.0,47,-99.99,,,0.00,Acu-Link.com,2013-08-30 21:42:00,
2013-08-30 15:58:00,83.8,56.2,29.97,SSW,202,1.7,-999.0,39,-99.99,,,0.00,Acu-Link.com,2013-08-30 21:58:00,
2013-08-30 16:13:00,81.0,53.7,29.97,SW,225,3.2,-999.0,39,-99.99,,,0.00,Acu-Link.com,2013-08-30 22:13:00,
2013-08-30 16:28:00,77.2,54.2,29.96,WSW,247,0.0,-999.0,45,-99.99,,,0.00,Acu-Link.com,2013-08-30 22:28:00,
2013-08-30 16:44:00,78.3,58.7,29.96,SSE,157,0.0,-999.0,51,-99.99,,,0.00,Acu-Link.com,2013-08-30 22:44:00,
2013-08-30 16:59:00,77.2,54.8,29.98,ESE,112,2.2,-999.0,46,-99.99,,,0.00,Acu-Link.com,2013-08-30 22:59:00,
2013-08-30 17:14:00,74.5,55.7,29.97,North,0,6.3,-999.0,52,-99.99,,,0.00,Acu-Link.com,2013-08-30 23:14:00,
2013-08-30 17:29:00,72.9,56.3,29.98,NNW,337,5.8,-999.0,56,-99.99,,,0.00,Acu-Link.com,2013-08-30 23:29:00,
2013-08-30 17:44:00,73.4,55.2,29.98,North,0,5.8,-999.0,53,-99.99,,,0.00,Acu-Link.com,2013-08-30 23:44:00,
2013-08-30 17:59:00,73.2,54.5,29.99,NW,315,11.9,-999.0,52,-99.99,,,0.00,Acu-Link.com,2013-08-30 23:59:00,
2013-08-30 18:14:00,73.2,54.5,30.00,NNW,337,5.3,-999.0,52,-99.99,,,0.00,Acu-Link.com,2013-08-31 00:14:00,
2013-08-30 18:30:00,71.1,53.6,29.99,North,0,7.8,-999.0,54,-99.99,,,0.00,Acu-Link.com,2013-08-31 00:30:00,
2013-08-30 18:45:00,69.8,52.9,29.99,ENE,67,7.3,-999.0,55,-99.99,,,0.00,Acu-Link.com,2013-08-31 00:45:00,
2013-08-30 19:00:00,69.1,53.2,29.99,NNE,22,6.8,-999.0,57,-99.99,,,0.00,Acu-Link.com,2013-08-31 01:00:00,
2013-08-30 19:15:00,68.5,52.7,30.01,NE,45,7.3,-999.0,57,-99.99,,,0.00,Acu-Link.com,2013-08-31 01:15:00,
2013-08-30 19:30:00,68.9,52.5,30.01,NNE,22,8.3,-999.0,56,-99.99,,,0.00,Acu-Link.com,2013-08-31 01:30:00,
2013-08-30 19:45:00,68.5,51.7,30.02,North,0,4.2,-999.0,55,-99.99,,,0.00,Acu-Link.com,2013-08-31 01:45:00,
2013-08-30 20:01:00,67.5,52.2,30.02,NNW,337,4.2,-999.0,58,-99.99,,,0.00,Acu-Link.com,2013-08-31 02:01:00,
2013-08-30 20:16:00,67.1,52.3,30.01,NNE,22,3.7,-999.0,59,-99.99,,,0.00,Acu-Link.com,2013-08-31 02:16:00,
2013-08-30 20:31:00,68.0,51.7,30.01,NE,45,5.3,-999.0,56,-99.99,,,0.00,Acu-Link.com,2013-08-31 02:31:00,
2013-08-30 20:46:00,67.1,52.3,30.03,NE,45,0.0,-999.0,59,-99.99,,,0.00,Acu-Link.com,2013-08-31 02:46:00,
2013-08-30 21:01:00,66.4,51.6,30.04,WSW,247,0.0,-999.0,59,-99.99,,,0.00,Acu-Link.com,2013-08-31 03:01:00,
2013-08-30 21:16:00,64.8,54.0,30.06,SSE,157,0.0,-999.0,68,-99.99,,,0.00,Acu-Link.com,2013-08-31 03:16:00,
2013-08-30 21:32:00,63.5,52.7,30.04,West,270,2.2,-999.0,68,-99.99,,,0.00,Acu-Link.com,2013-08-31 03:32:00,
2013-08-30 21:47:00,63.1,52.4,30.04,NNE,22,0.0,-999.0,68,-99.99,,,0.00,Acu-Link.com,2013-08-31 03:47:00,
2013-08-30 22:02:00,63.5,53.5,30.03,NNW,337,1.7,-999.0,70,-99.99,,,0.00,Acu-Link.com,2013-08-31 04:02:00,
2013-08-30 22:17:00,63.5,53.1,30.03,NE,45,5.8,-999.0,69,-99.99,,,0.00,Acu-Link.com,2013-08-31 04:17:00,
2013-08-30 22:33:00,63.3,53.0,30.05,SSW,202,2.2,-999.0,69,-99.99,,,0.00,Acu-Link.com,2013-08-31 04:33:00,
2013-08-30 22:48:00,62.2,52.3,30.04,SW,225,0.0,-999.0,70,-99.99,,,0.00,Acu-Link.com,2013-08-31 04:48:00,
2013-08-30 23:03:00,61.3,53.3,30.04,SSW,202,0.0,-999.0,75,-99.99,,,0.00,Acu-Link.com,2013-08-31 05:03:00,
2013-08-30 23:18:00,60.8,52.1,30.04,SW,225,0.0,-999.0,73,-99.99,,,0.00,Acu-Link.com,2013-08-31 05:18:00,
2013-08-30 23:33:00,62.6,52.7,30.04,NNW,337,5.3,-999.0,70,-99.99,,,0.00,Acu-Link.com,2013-08-31 05:33:00,
2013-08-30 23:49:00,63.3,53.0,30.03,NW,315,4.7,-999.0,69,-99.99,,,0.00,Acu-Link.com,2013-08-31 05:49:00,